Time,TemperatureF,DewpointF,PressureIn,WindDirection,WindDirectionDegrees,WindSpeedMPH,WindSpeedGustMPH,Humidity,HourlyPrecipIn,Conditions,Clouds,dailyrainin,SoftwareType,DateUTC
2013-09-16 00:00:00,54.2,51.0,29.96,South,176,0.0,40.0,89,0.00,,,0.00,Wunderground v.1.15,2013-09-16 04:00:00,
2013-09-16 00:05:00,54.2,51.3,29.96,South,176,0.0,40.0,90,0.00,,,0.00,Wunderground v.1.15,2013-09-16 04:05:00,
2013-09-16 00:10:00,54.2,51.0,29.96,SSE,154,0.0,40.0,89,0.00,,,0.00,Wunderground v.1.15,2013-09-16 04:10:00,
2013-09-16 00:15:00,54.2,51.0,29.96,SSE,160,0.0,40.0,89,0.00,,,0.00,Wunderground v.1.15,2013-09-16 04:15:00,
2013-09-16 00:20:00,54.2,51.0,29.96,SSE,160,0.0,40.0,89,0.00,,,0.00,Wunderground v.1.15,2013-09-16 04:20:00,
2013-09-16 00:30:00,54.2,51.3,29.95,SSE,161,0.0,40.0,90,0.00,,,0.00,Wunderground v.1.15,2013-09-16 04:30:00,
2013-09-16 00:35:00,54.1,51.2,29.95,SSE,161,0.0,40.0,90,0.00,,,0.00,Wunderground v.1.15,2013-09-16 04:35:00,
2013-09-16 00:45:00,53.9,50.7,29.95,SSE,160,0.0,40.0,89,0.00,,,0.00,Wunderground v.1.15,2013-09-16 04:45:00,
2013-09-16 00:50:00,53.9,51.0,29.95,SSE,165,0.0,40.0,90,0.00,,,0.00,Wunderground v.1.15,2013-09-16 04:50:00,
2013-09-16 00:55:00,53.9,50.7,29.95,SSE,168,0.0,40.0,89,0.00,,,0.00,Wunderground v.1.15,2013-09-16 04:55:00,
2013-09-16 01:00:00,54.0,50.8,29.94,SSE,168,0.0,40.0,89,0.00,,,0.00,Wunderground v.1.15,2013-09-16 05:00:00,
2013-09-16 01:10:00,54.0,50.8,29.95,SSE,168,0.0,40.0,89,0.00,,,0.00,Wunderground v.1.15,2013-09-16 05:10:00,
2013-09-16 01:15:00,54.1,50.9,29.95,SSW,205,1.0,40.0,89,0.00,,,0.00,Wunderground v.1.15,2013-09-16 05:15:00,
2013-09-16 01:20:00,54.1,50.9,29.95,SSW,205,1.0,1.0,89,0.00,,,0.00,Wunderground v.1.15,2013-09-16 05:20:00,
2013-09-16 01:25:00,54.1,50.9,29.94,SSW,205,0.0,40.0,89,0.00,,,0.00,Wunderground v.1.15,2013-09-16 05:25:00,
2013-09-16 01:35:00,53.9,51.0,29.93,South,177,0.0,40.0,90,0.00,,,0.00,Wunderground v.1.15,2013-09-16 05:35:00,
2013-09-16 01:45:00,54.0,50.8,29.91,South,170,1.0,40.0,89,0.00,,,0.00,Wunderground v.1.15,2013-09-16 05:45:00,
2013-09-16 01:50:00,54.0,50.8,29.93,South,170,0.0,40.0,89,0.00,,,0.00,Wunderground v.1.15,2013-09-16 05:50:00,
2013-09-16 01:55:00,54.0,50.8,29.93,South,170,0.0,40.0,89,0.00,,,0.00,Wunderground v.1.15,2013-09-16 05:55:00,
2013-09-16 02:00:00,53.9,51.0,29.94,SSW,204,1.0,1.0,90,0.00,,,0.00,Wunderground v.1.15,2013-09-16 06:00:00,
2013-09-16 02:05:00,53.7,51.1,29.95,SW,232,1.0,40.0,91,0.00,,,0.00,Wunderground v.1.15,2013-09-16 06:05:00,
2013-09-16 02:15:00,53.2,50.9,29.94,SSW,197,1.0,40.0,92,0.00,,,0.00,Wunderground v.1.15,2013-09-16 06:15:00,
2013-09-16 02:20:00,53.1,50.8,29.94,SSW,197,1.0,1.0,92,0.00,,,0.00,Wunderground v.1.15,2013-09-16 06:20:00,
2013-09-16 02:25:00,53.0,50.7,29.94,SSW,200,0.0,2.0,92,0.00,,,0.00,Wunderground v.1.15,2013-09-16 06:25:00,
2013-09-16 02:30:00,53.1,50.5,29.94,SSW,200,1.0,40.0,91,0.00,,,0.00,Wunderground v.1.15,2013-09-16 06:30:00,
2013-09-16 02:35:00,53.2,50.0,29.94,WSW,253,1.0,40.0,89,0.00,,,0.00,Wunderground v.1.15,2013-09-16 06:35:00,
2013-09-16 02:45:00,54.1,49.1,29.93,WSW,253,1.0,40.0,83,0.00,,,0.00,Wunderground v.1.15,2013-09-16 06:45:00,
2013-09-16 02:50:00,54.4,50.3,29.93,WSW,253,0.0,40.0,86,0.00,,,0.00,Wunderground v.1.15,2013-09-16 06:50:00,
2013-09-16 02:55:00,54.2,49.8,29.93,WSW,252,0.0,40.0,85,0.00,,,0.00,Wunderground v.1.15,2013-09-16 06:55:00,
2013-09-16 03:00:00,54.3,48.3,29.94,WSW,252,0.0,40.0,80,0.00,,,0.00,Wunderground v.1.15,2013-09-16 07:00:00,
2013-09-16 03:05:00,54.6,48.9,29.94,WSW,249,0.0,40.0,81,0.00,,,0.00,Wunderground v.1.15,2013-09-16 07:05:00,
2013-09-16 03:10:00,54.6,49.5,29.94,WSW,249,0.0,40.0,83,0.00,,,0.00,Wunderground v.1.15,2013-09-16 07:10:00,
2013-09-16 03:15:00,54.4,49.0,29.94,WSW,249,0.0,40.0,82,0.00,,,0.00,Wunderground v.1.15,2013-09-16 07:15:00,
2013-09-16 03:25:00,53.9,48.5,29.94,NW,314,1.0,40.0,82,0.00,,,0.00,Wunderground v.1.15,2013-09-16 07:25:00,
2013-09-16 03:35:00,53.7,49.9,29.94,SSE,152,0.0,40.0,87,0.00,,,0.00,Wunderground v.1.15,2013-09-16 07:35:00,
2013-09-16 03:40:00,53.6,49.5,29.93,SSE,152,0.0,40.0,86,0.00,,,0.00,Wunderground v.1.15,2013-09-16 07:40:00,
2013-09-16 03:45:00,53.5,49.4,29.93,SSE,152,0.0,40.0,86,0.00,,,0.00,Wunderground v.1.15,2013-09-16 07:45:00,
2013-09-16 03:50:00,53.3,49.2,29.93,SSE,152,0.0,40.0,86,0.00,,,0.00,Wunderground v.1.15,2013-09-16 07:50:00,
2013-09-16 04:00:00,53.2,49.1,29.92,SSE,152,0.0,40.0,86,0.00,,,0.00,Wunderground v.1.15,2013-09-16 08:00:00,
2013-09-16 04:05:00,53.2,49.1,29.93,SSE,152,0.0,40.0,86,0.00,,,0.00,Wunderground v.1.15,2013-09-16 08:05:00,
2013-09-16 04:10:00,53.2,49.1,29.92,SSE,152,0.0,40.0,86,0.00,,,0.00,Wunderground v.1.15,2013-09-16 08:10:00,
2013-09-16 04:15:00,53.1,49.3,29.93,SSE,152,0.0,40.0,87,0.00,,,0.00,Wunderground v.1.15,2013-09-16 08:15:00,
2013-09-16 04:20:00,53.1,49.3,29.92,SSE,152,0.0,40.0,87,0.00,,,0.00,Wunderground v.1.15,2013-09-16 08:20:00,
2013-09-16 04:30:00,52.9,49.4,29.93,SSE,152,0.0,40.0,88,0.00,,,0.00,Wunderground v.1.15,2013-09-16 08:30:00,
2013-09-16 04:35:00,52.8,49.6,29.94,SSE,152,0.0,40.0,89,0.00,,,0.00,Wunderground v.1.15,2013-09-16 08:35:00,
2013-09-16 04:45:00,52.7,50.1,29.94,SSE,152,0.0,40.0,91,0.00,,,0.00,Wunderground v.1.15,2013-09-16 08:45:00,
2013-09-16 04:50:00,52.5,50.2,29.94,SSE,152,0.0,40.0,92,0.00,,,0.00,Wunderground v.1.15,2013-09-16 08:50:00,
2013-09-16 04:55:00,52.4,50.1,29.95,SSE,152,0.0,40.0,92,0.00,,,0.00,Wunderground v.1.15,2013-09-16 08:55:00,
2013-09-16 05:05:00,52.2,49.9,29.95,West,262,1.0,40.0,92,0.00,,,0.01,Wunderground v.1.15,2013-09-16 09:05:00,
2013-09-16 05:10:00,52.1,49.8,29.95,WSW,249,2.0,40.0,92,0.00,,,0.01,Wunderground v.1.15,2013-09-16 09:10:00,
2013-09-16 05:15:00,52.0,49.7,29.94,WSW,255,2.0,40.0,92,0.00,,,0.01,Wunderground v.1.15,2013-09-16 09:15:00,
2013-09-16 05:25:00,52.0,49.7,29.94,West,277,1.0,2.0,92,0.00,,,0.01,Wunderground v.1.15,2013-09-16 09:25:00,
2013-09-16 05:30:00,52.0,49.7,29.95,West,272,1.0,1.0,92,0.00,,,0.01,Wunderground v.1.15,2013-09-16 09:30:00,
2013-09-16 05:40:00,51.9,49.9,29.96,SW,214,1.0,40.0,93,0.00,,,0.01,Wunderground v.1.15,2013-09-16 09:40:00,
2013-09-16 05:45:00,51.9,49.9,29.96,SW,226,2.0,40.0,93,0.00,,,0.01,Wunderground v.1.15,2013-09-16 09:45:00,
2013-09-16 05:50:00,51.8,50.1,29.95,South,191,2.0,2.0,94,0.00,,,0.01,Wunderground v.1.15,2013-09-16 09:50:00,
2013-09-16 05:55:00,51.7,50.0,29.95,SSW,193,2.0,40.0,94,0.00,,,0.01,Wunderground v.1.15,2013-09-16 09:55:00,
2013-09-16 06:00:00,51.7,50.0,29.95,SSW,208,1.0,1.0,94,0.00,,,0.01,Wunderground v.1.15,2013-09-16 10:00:00,
2013-09-16 06:10:00,51.7,50.0,29.95,SW,215,1.0,1.0,94,0.00,,,0.01,Wunderground v.1.15,2013-09-16 10:10:00,
2013-09-16 06:20:00,51.7,50.0,29.95,WSW,251,1.0,40.0,94,0.00,,,0.01,Wunderground v.1.15,2013-09-16 10:20:00,
2013-09-16 06:25:00,51.8,50.1,29.96,SW,224,1.0,40.0,94,0.00,,,0.01,Wunderground v.1.15,2013-09-16 10:25:00,
2013-09-16 06:30:00,51.9,49.9,29.96,SW,221,1.0,1.0,93,0.00,,,0.01,Wunderground v.1.15,2013-09-16 10:30:00,
2013-09-16 06:35:00,51.9,49.9,29.95,SW,221,0.0,40.0,93,0.00,,,0.01,Wunderground v.1.15,2013-09-16 10:35:00,
2013-09-16 06:40:00,51.9,49.9,29.95,West,267,0.0,40.0,93,0.00,,,0.01,Wunderground v.1.15,2013-09-16 10:40:00,
2013-09-16 06:50:00,52.1,49.8,29.95,WSW,244,1.0,40.0,92,0.00,,,0.01,Wunderground v.1.15,2013-09-16 10:50:00,
2013-09-16 06:55:00,52.1,49.8,29.96,WSW,253,1.0,40.0,92,0.00,,,0.01,Wunderground v.1.15,2013-09-16 10:55:00,
2013-09-16 07:05:00,52.0,50.0,29.95,WSW,258,1.0,40.0,93,0.00,,,0.01,Wunderground v.1.15,2013-09-16 11:05:00,
2013-09-16 07:10:00,51.9,49.9,29.95,West,279,1.0,40.0,93,0.00,,,0.01,Wunderground v.1.15,2013-09-16 11:10:00,
2013-09-16 07:15:00,52.2,49.9,29.95,West,266,2.0,40.0,92,0.00,,,0.01,Wunderground v.1.15,2013-09-16 11:15:00,
2013-09-16 07:25:00,52.3,50.0,29.95,WNW,283,1.0,40.0,92,0.00,,,0.01,Wunderground v.1.15,2013-09-16 11:25:00,
2013-09-16 07:30:00,52.3,49.8,29.95,WSW,256,1.0,1.0,91,0.00,,,0.01,Wunderground v.1.15,2013-09-16 11:30:00,
2013-09-16 07:35:00,52.4,49.8,29.94,WSW,251,1.0,40.0,91,0.00,,,0.01,Wunderground v.1.15,2013-09-16 11:35:00,
2013-09-16 07:40:00,52.5,49.9,29.94,SW,235,1.0,1.0,91,0.00,,,0.01,Wunderground v.1.15,2013-09-16 11:40:00,
2013-09-16 07:50:00,52.5,50.2,29.94,SW,218,1.0,40.0,92,0.00,,,0.01,Wunderground v.1.15,2013-09-16 11:50:00,
2013-09-16 08:00:00,52.5,50.2,29.94,SSW,206,2.0,2.0,92,0.00,,,0.01,Wunderground v.1.15,2013-09-16 12:00:00,
2013-09-16 08:05:00,52.6,50.3,29.95,WSW,244,2.0,40.0,92,0.00,,,0.01,Wunderground v.1.15,2013-09-16 12:05:00,
2013-09-16 08:10:00,52.7,50.7,29.95,SW,224,1.0,40.0,93,0.00,,,0.01,Wunderground v.1.15,2013-09-16 12:10:00,
2013-09-16 08:15:00,52.8,50.5,29.95,WNW,294,1.0,40.0,92,0.00,,,0.01,Wunderground v.1.15,2013-09-16 12:15:00,
2013-09-16 08:20:00,53.0,50.4,29.94,WSW,245,2.0,2.0,91,0.00,,,0.01,Wunderground v.1.15,2013-09-16 12:20:00,
2013-09-16 08:30:00,53.3,50.7,29.95,WSW,245,0.0,40.0,91,0.00,,,0.01,Wunderground v.1.15,2013-09-16 12:30:00,
2013-09-16 08:40:00,53.5,50.9,29.95,WSW,245,2.0,2.0,91,0.00,,,0.01,Wunderground v.1.15,2013-09-16 12:40:00,
2013-09-16 08:45:00,53.7,51.4,29.95,SW,225,2.0,40.0,92,0.00,,,0.01,Wunderground v.1.15,2013-09-16 12:45:00,
2013-09-16 08:50:00,54.0,51.4,29.96,SW,223,1.0,1.0,91,0.00,,,0.01,Wunderground v.1.15,2013-09-16 12:50:00,
2013-09-16 08:55:00,54.5,51.9,29.95,SW,222,1.0,40.0,91,0.00,,,0.01,Wunderground v.1.15,2013-09-16 12:55:00,
2013-09-16 09:00:00,54.9,51.7,29.95,SW,236,1.0,1.0,89,0.00,,,0.01,Wunderground v.1.15,2013-09-16 13:00:00,
2013-09-16 09:05:00,54.9,51.1,29.96,West,267,1.0,40.0,87,0.00,,,0.01,Wunderground v.1.15,2013-09-16 13:05:00,
2013-09-16 09:10:00,54.8,50.7,29.95,NNW,329,2.0,40.0,86,0.00,,,0.01,Wunderground v.1.15,2013-09-16 13:10:00,
2013-09-16 09:20:00,54.6,51.4,29.96,WSW,252,2.0,40.0,89,0.00,,,0.01,Wunderground v.1.15,2013-09-16 13:20:00,
2013-09-16 09:25:00,54.4,50.6,29.96,WSW,239,2.0,40.0,87,0.00,,,0.01,Wunderground v.1.15,2013-09-16 13:25:00,
2013-09-16 09:30:00,54.4,50.6,29.96,WSW,247,3.0,3.0,87,0.00,,,0.01,Wunderground v.1.15,2013-09-16 13:30:00,
2013-09-16 09:35:00,54.2,50.7,29.96,SSW,194,3.0,40.0,88,0.00,,,0.01,Wunderground v.1.15,2013-09-16 13:35:00,
2013-09-16 09:45:00,54.3,50.8,29.96,West,260,2.0,40.0,88,0.00,,,0.01,Wunderground v.1.15,2013-09-16 13:45:00,
2013-09-16 09:50:00,54.4,50.9,29.97,West,265,1.0,40.0,88,0.00,,,0.01,Wunderground v.1.15,2013-09-16 13:50:00,
2013-09-16 09:55:00,54.4,50.6,29.97,SSW,206,2.0,40.0,87,0.00,,,0.01,Wunderground v.1.15,2013-09-16 13:55:00,
2013-09-16 10:00:00,54.5,50.7,29.96,WSW,245,3.0,3.0,87,0.00,,,0.01,Wunderground v.1.15,2013-09-16 14:00:00,
2013-09-16 10:05:00,54.7,51.2,29.97,West,274,2.0,40.0,88,0.00,,,0.01,Wunderground v.1.15,2013-09-16 14:05:00,
2013-09-16 10:15:00,55.2,51.1,29.97,WSW,252,3.0,40.0,86,0.00,,,0.01,Wunderground v.1.15,2013-09-16 14:15:00,
2013-09-16 10:25:00,55.5,51.4,29.96,SW,216,4.0,40.0,86,0.00,,,0.01,Wunderground v.1.15,2013-09-16 14:25:00,
2013-09-16 10:30:00,55.7,50.9,29.96,SW,221,4.0,40.0,84,0.00,,,0.01,Wunderground v.1.15,2013-09-16 14:30:00,
2013-09-16 10:35:00,56.0,51.2,29.96,SW,217,4.0,40.0,84,0.00,,,0.01,Wunderground v.1.15,2013-09-16 14:35:00,
2013-09-16 10:40:00,56.0,51.2,29.96,WSW,245,4.0,4.0,84,0.00,,,0.01,Wunderground v.1.15,2013-09-16 14:40:00,
2013-09-16 10:45:00,56.1,51.7,29.97,WSW,248,4.0,40.0,85,0.00,,,0.01,Wunderground v.1.15,2013-09-16 14:45:00,
2013-09-16 10:55:00,55.8,51.0,29.97,NW,312,3.0,40.0,84,0.00,,,0.01,Wunderground v.1.15,2013-09-16 14:55:00,
2013-09-16 11:00:00,55.6,50.8,29.97,WSW,252,3.0,3.0,84,0.00,,,0.01,Wunderground v.1.15,2013-09-16 15:00:00,
2013-09-16 11:05:00,55.4,51.0,29.97,West,279,3.0,6.0,85,0.00,,,0.01,Wunderground v.1.15,2013-09-16 15:05:00,
2013-09-16 11:15:00,55.3,51.2,29.97,WNW,290,3.0,40.0,86,0.00,,,0.01,Wunderground v.1.15,2013-09-16 15:15:00,
2013-09-16 11:20:00,55.5,51.1,29.97,WSW,237,2.0,40.0,85,0.00,,,0.01,Wunderground v.1.15,2013-09-16 15:20:00,
2013-09-16 11:30:00,55.9,50.8,29.97,West,271,4.0,4.0,83,0.00,,,0.01,Wunderground v.1.15,2013-09-16 15:30:00,
2013-09-16 11:35:00,56.0,50.6,29.97,WSW,258,5.0,6.0,82,0.00,,,0.01,Wunderground v.1.15,2013-09-16 15:35:00,
2013-09-16 11:40:00,56.4,51.0,29.97,SW,220,5.0,40.0,82,0.00,,,0.01,Wunderground v.1.15,2013-09-16 15:40:00,
2013-09-16 11:45:00,56.8,51.0,29.97,West,260,5.0,40.0,81,0.00,,,0.01,Wunderground v.1.15,2013-09-16 15:45:00,
2013-09-16 11:50:00,57.0,51.6,29.97,West,281,5.0,40.0,82,0.00,,,0.01,Wunderground v.1.15,2013-09-16 15:50:00,
2013-09-16 12:00:00,57.3,51.2,29.97,SW,214,4.0,40.0,80,0.00,,,0.01,Wunderground v.1.15,2013-09-16 16:00:00,
2013-09-16 12:05:00,57.2,51.1,29.97,WNW,300,5.0,40.0,80,0.00,,,0.01,Wunderground v.1.15,2013-09-16 16:05:00,
2013-09-16 12:10:00,57.2,51.1,29.97,West,273,5.0,5.0,80,0.00,,,0.01,Wunderground v.1.15,2013-09-16 16:10:00,
2013-09-16 12:15:00,57.7,51.6,29.97,WSW,258,5.0,40.0,80,0.00,,,0.01,Wunderground v.1.15,2013-09-16 16:15:00,
2013-09-16 12:20:00,57.9,51.8,29.97,West,263,3.0,40.0,80,0.00,,,0.01,Wunderground v.1.15,2013-09-16 16:20:00,
2013-09-16 12:30:00,57.9,52.1,29.97,SW,222,2.0,40.0,81,0.00,,,0.01,Wunderground v.1.15,2013-09-16 16:30:00,
2013-09-16 12:35:00,58.1,52.0,29.98,West,262,2.0,40.0,80,0.00,,,0.01,Wunderground v.1.15,2013-09-16 16:35:00,
2013-09-16 12:45:00,57.4,51.3,29.98,West,262,4.0,40.0,80,0.00,,,0.01,Wunderground v.1.15,2013-09-16 16:45:00,
2013-09-16 12:50:00,57.2,51.4,29.98,West,259,3.0,3.0,81,0.00,,,0.01,Wunderground v.1.15,2013-09-16 16:50:00,
2013-09-16 12:55:00,57.2,50.1,29.98,WSW,256,3.0,4.0,77,0.00,,,0.01,Wunderground v.1.15,2013-09-16 16:55:00,
2013-09-16 13:00:00,57.3,50.1,29.98,WSW,255,5.0,40.0,77,0.00,,,0.01,Wunderground v.1.15,2013-09-16 17:00:00,
2013-09-16 13:10:00,57.1,50.0,29.98,WNW,293,5.0,5.0,77,0.00,,,0.01,Wunderground v.1.15,2013-09-16 17:10:00,
2013-09-16 13:15:00,57.0,50.2,29.98,SW,233,5.0,6.0,78,0.00,,,0.01,Wunderground v.1.15,2013-09-16 17:15:00,
2013-09-16 13:20:00,57.2,50.7,29.98,NW,308,4.0,40.0,79,0.00,,,0.01,Wunderground v.1.15,2013-09-16 17:20:00,
2013-09-16 13:25:00,57.8,51.0,29.98,NW,315,4.0,40.0,78,0.00,,,0.01,Wunderground v.1.15,2013-09-16 17:25:00,
2013-09-16 13:30:00,58.0,50.5,29.98,WSW,251,6.0,6.0,76,0.00,,,0.01,Wunderground v.1.15,2013-09-16 17:30:00,
2013-09-16 13:40:00,57.8,50.3,29.98,WNW,301,4.0,4.0,76,0.00,,,0.01,Wunderground v.1.15,2013-09-16 17:40:00,
2013-09-16 13:50:00,57.0,49.9,29.99,NNE,12,5.0,5.0,77,0.00,,,0.01,Wunderground v.1.15,2013-09-16 17:50:00,
2013-09-16 13:55:00,56.6,49.1,29.99,NNW,347,4.0,40.0,76,0.00,,,0.01,Wunderground v.1.15,2013-09-16 17:55:00,
2013-09-16 14:00:00,56.0,49.2,29.99,NW,307,4.0,4.0,78,0.00,,,0.01,Wunderground v.1.15,2013-09-16 18:00:00,
2013-09-16 14:05:00,55.8,49.4,29.99,WSW,249,3.0,40.0,79,0.00,,,0.01,Wunderground v.1.15,2013-09-16 18:05:00,
2013-09-16 14:15:00,55.4,49.0,30.00,NW,324,3.0,40.0,79,0.00,,,0.01,Wunderground v.1.15,2013-09-16 18:15:00,
2013-09-16 14:20:00,55.0,48.6,30.00,NE,35,4.0,4.0,79,0.00,,,0.01,Wunderground v.1.15,2013-09-16 18:20:00,
2013-09-16 14:25:00,54.6,48.2,30.00,West,267,4.0,6.0,79,0.00,,,0.01,Wunderground v.1.15,2013-09-16 18:25:00,
2013-09-16 14:30:00,54.2,47.8,30.00,NW,320,4.0,40.0,79,0.00,,,0.01,Wunderground v.1.15,2013-09-16 18:30:00,
2013-09-16 14:35:00,53.7,47.7,30.00,West,278,5.0,40.0,80,0.00,,,0.01,Wunderground v.1.15,2013-09-16 18:35:00,
2013-09-16 14:40:00,53.4,47.0,30.00,NNE,28,4.0,4.0,79,0.00,,,0.01,Wunderground v.1.15,2013-09-16 18:40:00,
2013-09-16 14:50:00,53.0,47.0,30.01,NNE,14,4.0,40.0,80,0.00,,,0.01,Wunderground v.1.15,2013-09-16 18:50:00,
2013-09-16 14:55:00,53.0,47.0,30.01,WNW,285,4.0,40.0,80,0.00,,,0.01,Wunderground v.1.15,2013-09-16 18:55:00,
2013-09-16 15:00:00,53.2,47.2,30.01,NNW,335,4.0,4.0,80,0.00,,,0.01,Wunderground v.1.15,2013-09-16 19:00:00,
2013-09-16 15:05:00,53.6,47.6,30.01,NE,35,4.0,40.0,80,0.00,,,0.01,Wunderground v.1.15,2013-09-16 19:05:00,
2013-09-16 15:10:00,54.1,47.4,30.01,NW,314,4.0,40.0,78,0.00,,,0.01,Wunderground v.1.15,2013-09-16 19:10:00,
2013-09-16 15:20:00,53.7,46.7,30.01,NNW,343,4.0,4.0,77,0.00,,,0.01,Wunderground v.1.15,2013-09-16 19:20:00,
2013-09-16 15:25:00,53.9,46.9,30.02,WNW,292,5.0,10.0,77,0.00,,,0.01,Wunderground v.1.15,2013-09-16 19:25:00,
2013-09-16 15:30:00,54.5,47.1,30.02,West,278,5.0,40.0,76,0.00,,,0.01,Wunderground v.1.15,2013-09-16 19:30:00,
2013-09-16 15:40:00,55.0,46.5,30.01,WSW,257,5.0,5.0,73,0.00,,,0.01,Wunderground v.1.15,2013-09-16 19:40:00,
2013-09-16 15:50:00,55.8,46.5,30.01,NW,307,3.0,40.0,71,0.00,,,0.01,Wunderground v.1.15,2013-09-16 19:50:00,
2013-09-16 15:55:00,55.9,45.5,30.01,NNW,330,4.0,40.0,68,0.00,,,0.01,Wunderground v.1.15,2013-09-16 19:55:00,
2013-09-16 16:05:00,55.1,43.9,30.02,West,268,4.0,40.0,66,0.00,,,0.01,Wunderground v.1.15,2013-09-16 20:05:00,
2013-09-16 16:10:00,55.2,44.0,30.02,NW,310,4.0,4.0,66,0.00,,,0.01,Wunderground v.1.15,2013-09-16 20:10:00,
2013-09-16 16:15:00,55.2,43.6,30.02,WSW,242,5.0,5.0,65,0.00,,,0.01,Wunderground v.1.15,2013-09-16 20:15:00,
2013-09-16 16:20:00,55.3,43.7,30.03,West,274,5.0,40.0,65,0.00,,,0.01,Wunderground v.1.15,2013-09-16 20:20:00,
2013-09-16 16:30:00,55.1,43.9,30.03,West,266,5.0,5.0,66,0.00,,,0.01,Wunderground v.1.15,2013-09-16 20:30:00,
2013-09-16 16:35:00,55.2,43.6,30.03,ENE,77,4.0,40.0,65,0.00,,,0.01,Wunderground v.1.15,2013-09-16 20:35:00,
2013-09-16 16:40:00,55.5,43.5,30.03,WNW,291,3.0,3.0,64,0.00,,,0.01,Wunderground v.1.15,2013-09-16 20:40:00,
2013-09-16 16:45:00,55.3,42.9,30.03,NNW,337,4.0,4.0,63,0.00,,,0.01,Wunderground v.1.15,2013-09-16 20:45:00,
2013-09-16 16:50:00,54.9,41.7,30.04,NW,326,6.0,6.0,61,0.00,,,0.01,Wunderground v.1.15,2013-09-16 20:50:00,
2013-09-16 17:00:00,54.6,42.7,30.04,WNW,303,4.0,4.0,64,0.00,,,0.01,Wunderground v.1.15,2013-09-16 21:00:00,
2013-09-16 17:05:00,54.6,42.3,30.04,West,278,4.0,40.0,63,0.00,,,0.01,Wunderground v.1.15,2013-09-16 21:05:00,
2013-09-16 17:10:00,54.6,41.8,30.04,NNW,337,4.0,40.0,62,0.00,,,0.01,Wunderground v.1.15,2013-09-16 21:10:00,
2013-09-16 17:15:00,54.5,41.7,30.04,North,4,4.0,40.0,62,0.00,,,0.01,Wunderground v.1.15,2013-09-16 21:15:00,
2013-09-16 17:20:00,54.3,42.0,30.04,NW,308,4.0,40.0,63,0.00,,,0.01,Wunderground v.1.15,2013-09-16 21:20:00,
2013-09-16 17:30:00,54.0,41.7,30.05,North,359,4.0,40.0,63,0.00,,,0.01,Wunderground v.1.15,2013-09-16 21:30:00,
2013-09-16 17:35:00,53.6,41.7,30.05,NNE,17,4.0,40.0,64,0.00,,,0.01,Wunderground v.1.15,2013-09-16 21:35:00,
2013-09-16 17:45:00,52.9,41.4,30.06,WNW,301,5.0,5.0,65,0.00,,,0.01,Wunderground v.1.15,2013-09-16 21:45:00,
2013-09-16 17:50:00,52.7,41.3,30.06,North,350,5.0,40.0,65,0.00,,,0.01,Wunderground v.1.15,2013-09-16 21:50:00,
2013-09-16 17:55:00,52.3,40.9,30.06,NW,317,4.0,40.0,65,0.00,,,0.01,Wunderground v.1.15,2013-09-16 21:55:00,
2013-09-16 18:00:00,52.0,40.2,30.06,NNE,13,5.0,5.0,64,0.00,,,0.01,Wunderground v.1.15,2013-09-16 22:00:00,
2013-09-16 18:10:00,51.3,39.5,30.07,WNW,288,5.0,5.0,64,0.00,,,0.01,Wunderground v.1.15,2013-09-16 22:10:00,
2013-09-16 18:20:00,50.6,38.9,30.07,North,354,5.0,5.0,64,0.00,,,0.01,Wunderground v.1.15,2013-09-16 22:20:00,
2013-09-16 18:25:00,50.2,38.9,30.08,NW,324,6.0,6.0,65,0.00,,,0.01,Wunderground v.1.15,2013-09-16 22:25:00,
2013-09-16 18:30:00,49.9,38.2,30.08,NW,309,5.0,40.0,64,0.00,,,0.01,Wunderground v.1.15,2013-09-16 22:30:00,
2013-09-16 18:40:00,49.2,37.9,30.08,South,178,5.0,5.0,65,0.00,,,0.01,Wunderground v.1.15,2013-09-16 22:40:00,
2013-09-16 18:45:00,48.8,37.6,30.08,NNE,23,5.0,40.0,65,0.00,,,0.01,Wunderground v.1.15,2013-09-16 22:45:00,
2013-09-16 18:50:00,48.2,37.8,30.09,East,94,5.0,5.0,67,0.00,,,0.01,Wunderground v.1.15,2013-09-16 22:50:00,
2013-09-16 19:00:00,47.3,37.6,30.09,East,89,4.0,4.0,69,0.00,,,0.01,Wunderground v.1.15,2013-09-16 23:00:00,
2013-09-16 19:05:00,46.9,38.0,30.10,NNW,331,3.0,40.0,71,0.00,,,0.01,Wunderground v.1.15,2013-09-16 23:05:00,
2013-09-16 19:10:00,46.5,38.0,30.10,West,278,2.0,40.0,72,0.00,,,0.01,Wunderground v.1.15,2013-09-16 23:10:00,
2013-09-16 19:20:00,45.9,37.7,30.10,West,268,2.0,2.0,73,0.00,,,0.01,Wunderground v.1.15,2013-09-16 23:20:00,
2013-09-16 19:25:00,45.8,36.9,30.10,NW,305,3.0,6.0,71,0.00,,,0.01,Wunderground v.1.15,2013-09-16 23:25:00,
2013-09-16 19:30:00,45.7,37.2,30.10,NE,37,4.0,4.0,72,0.00,,,0.01,Wunderground v.1.15,2013-09-16 23:30:00,
2013-09-16 19:35:00,45.6,36.7,30.11,West,280,4.0,40.0,71,0.00,,,0.01,Wunderground v.1.15,2013-09-16 23:35:00,
2013-09-16 19:40:00,45.5,36.6,30.11,West,270,4.0,4.0,71,0.00,,,0.01,Wunderground v.1.15,2013-09-16 23:40:00,
2013-09-16 19:45:00,45.4,36.5,30.11,ESE,106,2.0,40.0,71,0.00,,,0.01,Wunderground v.1.15,2013-09-16 23:45:00,
2013-09-16 19:50:00,45.2,35.6,30.12,West,281,3.0,40.0,69,0.00,,,0.01,Wunderground v.1.15,2013-09-16 23:50:00,
2013-09-16 20:00:00,45.2,36.4,30.13,WSW,239,4.0,4.0,71,0.00,,,0.01,Wunderground v.1.15,2013-09-17 00:00:00,
2013-09-16 20:05:00,45.0,36.2,30.13,NE,50,1.0,40.0,71,0.00,,,0.01,Wunderground v.1.15,2013-09-17 00:05:00,
2013-09-16 20:10:00,44.6,36.1,30.13,WNW,301,1.0,40.0,72,0.00,,,0.01,Wunderground v.1.15,2013-09-17 00:10:00,
2013-09-16 20:20:00,44.3,35.8,30.13,West,274,3.0,3.0,72,0.00,,,0.01,Wunderground v.1.15,2013-09-17 00:20:00,
2013-09-16 20:25:00,44.1,36.0,30.14,NNE,18,2.0,40.0,73,0.00,,,0.01,Wunderground v.1.15,2013-09-17 00:25:00,
2013-09-16 20:30:00,43.9,35.8,30.14,NNW,347,2.0,40.0,73,0.00,,,0.01,Wunderground v.1.15,2013-09-17 00:30:00,
2013-09-16 20:35:00,43.7,35.6,30.14,NNW,338,2.0,40.0,73,0.00,,,0.01,Wunderground v.1.15,2013-09-17 00:35:00,
2013-09-16 20:40:00,43.6,35.9,30.14,WSW,253,2.0,40.0,74,0.00,,,0.01,Wunderground v.1.15,2013-09-17 00:40:00,
2013-09-16 20:45:00,43.5,36.4,30.14,NNW,337,1.0,40.0,76,0.00,,,0.01,Wunderground v.1.15,2013-09-17 00:45:00,
2013-09-16 20:55:00,43.2,35.8,30.15,East,89,2.0,40.0,75,0.00,,,0.01,Wunderground v.1.15,2013-09-17 00:55:00,
2013-09-16 21:00:00,43.2,35.8,30.15,NE,52,2.0,2.0,75,0.00,,,0.01,Wunderground v.1.15,2013-09-17 01:00:00,
2013-09-16 21:05:00,43.1,35.7,30.15,NE,34,2.0,40.0,75,0.00,,,0.01,Wunderground v.1.15,2013-09-17 01:05:00,
2013-09-16 21:10:00,43.0,36.0,30.16,WNW,287,2.0,2.0,76,0.00,,,0.01,Wunderground v.1.15,2013-09-17 01:10:00,
2013-09-16 21:15:00,42.8,35.8,30.16,NNE,12,1.0,4.0,76,0.00,,,0.01,Wunderground v.1.15,2013-09-17 01:15:00,
2013-09-16 21:25:00,42.6,35.6,30.16,NNE,18,2.0,40.0,76,0.00,,,0.01,Wunderground v.1.15,2013-09-17 01:25:00,
2013-09-16 21:30:00,42.5,36.1,30.16,ENE,58,1.0,40.0,78,0.00,,,0.01,Wunderground v.1.15,2013-09-17 01:30:00,
2013-09-16 21:35:00,42.3,35.9,30.16,West,272,1.0,40.0,78,0.00,,,0.01,Wunderground v.1.15,2013-09-17 01:35:00,
2013-09-16 21:40:00,42.1,35.7,30.16,ENE,71,1.0,1.0,78,0.00,,,0.01,Wunderground v.1.15,2013-09-17 01:40:00,
2013-09-16 21:45:00,42.0,35.6,30.16,ENE,71,0.0,40.0,78,0.00,,,0.01,Wunderground v.1.15,2013-09-17 01:45:00,
2013-09-16 21:50:00,41.8,36.4,30.16,ENE,71,0.0,40.0,81,0.00,,,0.01,Wunderground v.1.15,2013-09-17 01:50:00,
2013-09-16 22:00:00,41.3,36.2,30.17,ENE,71,0.0,40.0,82,0.00,,,0.01,Wunderground v.1.15,2013-09-17 02:00:00,
2013-09-16 22:05:00,41.0,35.9,30.17,ENE,71,0.0,40.0,82,0.00,,,0.01,Wunderground v.1.15,2013-09-17 02:05:00,
2013-09-16 22:10:00,40.9,35.2,30.17,North,359,0.0,40.0,80,0.00,,,0.01,Wunderground v.1.15,2013-09-17 02:10:00,
2013-09-16 22:15:00,41.0,35.6,30.18,NE,45,1.0,40.0,81,0.00,,,0.01,Wunderground v.1.15,2013-09-17 02:15:00,
2013-09-16 22:20:00,41.0,35.6,30.18,NNE,13,1.0,1.0,81,0.00,,,0.01,Wunderground v.1.15,2013-09-17 02:20:00,
2013-09-16 22:30:00,41.0,35.6,30.18,NE,41,1.0,40.0,81,0.00,,,0.01,Wunderground v.1.15,2013-09-17 02:30:00,
2013-09-16 22:35:00,40.9,36.1,30.18,NE,41,1.0,40.0,83,0.00,,,0.01,Wunderground v.1.15,2013-09-17 02:35:00,
2013-09-16 22:40:00,40.6,35.8,30.19,NE,41,0.0,40.0,83,0.00,,,0.01,Wunderground v.1.15,2013-09-17 02:40:00,
2013-09-16 22:45:00,40.4,35.6,30.19,ENE,70,0.0,40.0,83,0.00,,,0.01,Wunderground v.1.15,2013-09-17 02:45:00,
2013-09-16 22:50:00,40.3,35.5,30.19,NE,37,0.0,40.0,83,0.00,,,0.01,Wunderground v.1.15,2013-09-17 02:50:00,
2013-09-16 23:00:00,40.0,35.6,30.19,NE,37,0.0,40.0,84,0.00,,,0.01,Wunderground v.1.15,2013-09-17 03:00:00,
2013-09-16 23:05:00,39.7,35.6,30.19,NE,37,0.0,40.0,85,0.00,,,0.01,Wunderground v.1.15,2013-09-17 03:05:00,
2013-09-16 23:15:00,39.8,35.4,30.20,NNE,25,0.0,40.0,84,0.00,,,0.01,Wunderground v.1.15,2013-09-17 03:15:00,
2013-09-16 23:20:00,39.7,35.3,30.20,NNE,25,0.0,40.0,84,0.00,,,0.01,Wunderground v.1.15,2013-09-17 03:20:00,
2013-09-16 23:25:00,39.7,35.0,30.20,NNE,25,0.0,40.0,83,0.00,,,0.01,Wunderground v.1.15,2013-09-17 03:25:00,
2013-09-16 23:30:00,39.6,35.2,30.20,NNE,25,0.0,40.0,84,0.00,,,0.01,Wunderground v.1.15,2013-09-17 03:30:00,
2013-09-16 23:40:00,39.3,35.2,30.21,NNE,25,0.0,40.0,85,0.00,,,0.01,Wunderground v.1.15,2013-09-17 03:40:00,
2013-09-16 23:45:00,39.2,35.1,30.21,NNE,25,0.0,40.0,85,0.00,,,0.01,Wunderground v.1.15,2013-09-17 03:45:00,
2013-09-16 23:50:00,39.2,35.1,30.21,NNE,25,0.0,40.0,85,0.00,,,0.01,Wunderground v.1.15,2013-09-17 03:50:00,
2013-09-16 23:55:00,39.2,34.8,30.21,ENE,70,0.0,40.0,84,0.00,,,0.01,Wunderground v.1.15,2013-09-17 03:55:00,